createdAt,value
2018-01-15T00:01:47.172Z,30.37
2018-01-15T00:04:13.579Z,30.52
2018-01-15T00:06:41.748Z,29.02
2018-01-15T00:09:08.187Z,29.80
2018-01-15T00:11:34.581Z,30.35
2018-01-15T00:14:00.980Z,32.50
2018-01-15T00:16:27.388Z,27.95
2018-01-15T00:18:53.801Z,26.75
2018-01-15T00:21:20.099Z,30.73
2018-01-15T00:23:47.290Z,30.05
2018-01-15T00:26:13.707Z,31.08
2018-01-15T00:28:40.163Z,30.77
2018-01-15T00:31:07.279Z,33.17
2018-01-15T00:33:33.735Z,28.50
2018-01-15T00:36:00.143Z,32.45
2018-01-15T00:38:26.483Z,28.95
2018-01-15T00:40:52.898Z,28.70
2018-01-15T00:43:19.373Z,29.45
2018-01-15T00:45:45.798Z,28.87
2018-01-15T00:48:12.231Z,30.12
2018-01-15T00:50:38.647Z,30.33
2018-01-15T00:53:04.983Z,27.77
2018-01-15T00:55:31.306Z,29.12
2018-01-15T00:57:57.762Z,29.17
2018-01-15T01:00:24.158Z,27.52
2018-01-15T01:02:50.650Z,29.17
2018-01-15T01:05:17.022Z,30.40
2018-01-15T01:07:43.470Z,33.58
2018-01-15T01:10:09.823Z,26.98
2018-01-15T01:12:36.134Z,32.22
2018-01-15T01:15:02.484Z,31.50
2018-01-15T01:17:28.902Z,28.58
2018-01-15T01:19:55.989Z,30.50
2018-01-15T01:22:22.388Z,30.98
2018-01-15T01:24:48.786Z,28.35
2018-01-15T01:27:15.859Z,27.80
2018-01-15T01:29:42.208Z,27.67
2018-01-15T01:32:08.526Z,29.87
2018-01-15T01:34:34.935Z,27.83
2018-01-15T01:37:02.111Z,24.20
2018-01-15T01:39:28.540Z,23.95
2018-01-15T01:41:54.975Z,27.67
2018-01-15T01:44:21.387Z,29.95
2018-01-15T01:46:47.733Z,30.75
2018-01-15T01:49:14.050Z,27.40
2018-01-15T01:51:40.493Z,29.52
2018-01-15T01:54:06.960Z,28.95
2018-01-15T01:56:33.378Z,29.15
2018-01-15T01:58:59.766Z,26.52
2018-01-15T02:01:26.845Z,30.35
2018-01-15T02:03:53.183Z,26.25
2018-01-15T02:06:19.499Z,28.87
2018-01-15T02:08:46.007Z,28.00
2018-01-15T02:11:13.196Z,26.65
2018-01-15T02:13:39.617Z,29.10
2018-01-15T02:16:06.046Z,27.90
2018-01-15T02:18:32.407Z,28.90
2018-01-15T02:20:58.828Z,26.95
2018-01-15T02:23:25.165Z,29.02
2018-01-15T02:25:51.592Z,32.83
2018-01-15T02:28:18.044Z,29.15
2018-01-15T02:30:44.466Z,24.90
2018-01-15T02:33:10.910Z,24.27
2018-01-15T02:35:37.445Z,28.77
2018-01-15T02:38:03.862Z,25.92
2018-01-15T02:40:30.177Z,24.20
2018-01-15T02:42:56.632Z,24.37
2018-01-15T02:45:23.043Z,27.15
2018-01-15T02:47:49.491Z,28.50
2018-01-15T02:50:15.894Z,26.37
2018-01-15T02:52:42.310Z,25.20
2018-01-15T02:55:09.381Z,31.08
2018-01-15T02:57:35.728Z,26.42
2018-01-15T03:00:02.096Z,26.37
2018-01-15T03:02:28.691Z,25.33
2018-01-15T03:04:55.104Z,28.95
2018-01-15T03:07:22.299Z,24.40
2018-01-15T03:09:48.713Z,22.45
2018-01-15T03:12:15.140Z,25.23
2018-01-15T03:14:41.454Z,24.30
2018-01-15T03:17:07.831Z,26.55
2018-01-15T03:19:34.210Z,26.95
2018-01-15T03:22:01.392Z,25.67
2018-01-15T03:24:27.725Z,26.08
2018-01-15T03:26:54.168Z,26.23
2018-01-15T03:29:20.568Z,21.40
2018-01-15T03:31:47.078Z,21.83
2018-01-15T03:34:14.771Z,25.37
2018-01-15T03:36:45.046Z,27.00
2018-01-15T03:39:11.432Z,25.50
2018-01-15T03:41:37.893Z,23.45
2018-01-15T03:44:04.297Z,24.50
2018-01-15T03:46:30.740Z,27.33
2018-01-15T03:48:57.060Z,20.80
2018-01-15T03:51:23.410Z,20.62
2018-01-15T03:53:49.818Z,23.45
2018-01-15T03:56:16.262Z,20.37
2018-01-15T03:58:42.682Z,19.48
2018-01-15T04:01:09.192Z,21.98
2018-01-15T04:03:35.542Z,21.15
2018-01-15T04:06:01.875Z,21.75
2018-01-15T04:08:28.233Z,21.48
2018-01-15T04:10:54.648Z,19.87
2018-01-15T04:13:21.086Z,23.30
2018-01-15T04:15:47.534Z,24.02
2018-01-15T04:18:13.934Z,21.23
2018-01-15T04:20:40.293Z,20.67
2018-01-15T04:23:06.700Z,20.42
2018-01-15T04:25:33.050Z,18.60
2018-01-15T04:27:59.470Z,19.85
2018-01-15T04:30:26.036Z,21.25
2018-01-15T04:32:52.427Z,21.62
2018-01-15T04:35:18.932Z,19.55
2018-01-15T04:37:45.323Z,19.10
2018-01-15T04:40:11.740Z,21.75
2018-01-15T04:42:38.104Z,20.05
2018-01-15T04:45:04.394Z,18.73
2018-01-15T04:47:30.860Z,19.05
2018-01-15T04:49:57.263Z,18.80
2018-01-15T04:52:23.730Z,20.17
2018-01-15T04:54:50.129Z,19.20
2018-01-15T04:57:16.581Z,20.30
2018-01-15T04:59:42.877Z,20.05
2018-01-15T05:02:09.975Z,18.25
2018-01-15T05:04:36.319Z,19.55
2018-01-15T05:07:02.630Z,18.58
2018-01-15T05:09:28.940Z,15.65
2018-01-15T05:11:55.379Z,20.37
2018-01-15T05:14:21.789Z,16.83
2018-01-15T05:16:48.868Z,20.27
2018-01-15T05:19:15.187Z,18.62
2018-01-15T05:21:41.632Z,20.62
2018-01-15T05:24:08.044Z,19.15
2018-01-15T05:26:34.496Z,19.62
2018-01-15T05:29:00.907Z,19.30
2018-01-15T05:31:27.253Z,19.30
2018-01-15T05:33:53.588Z,19.70
2018-01-15T05:36:19.988Z,18.95
2018-01-15T05:38:47.178Z,16.83
2018-01-15T05:41:13.630Z,19.65
2018-01-15T05:43:40.042Z,16.45
2018-01-15T05:46:06.462Z,18.77
2018-01-15T05:48:32.866Z,16.75
2018-01-15T05:50:59.937Z,16.52
2018-01-15T05:53:26.290Z,17.75
2018-01-15T05:55:52.603Z,15.52
2018-01-15T05:58:20.038Z,17.48
2018-01-15T06:00:47.223Z,16.30
2018-01-15T06:03:13.633Z,17.40
2018-01-15T06:05:39.990Z,14.95
2018-01-15T06:08:06.385Z,19.48
2018-01-15T06:10:33.467Z,16.62
2018-01-15T06:12:59.880Z,16.85
2018-01-15T06:15:26.383Z,17.95
2018-01-15T06:17:53.553Z,19.12
2018-01-15T06:20:19.942Z,15.00
2018-01-15T06:22:46.364Z,17.25
2018-01-15T06:25:12.742Z,16.58
2018-01-15T06:27:39.840Z,19.37
2018-01-15T06:30:06.137Z,16.58
2018-01-15T06:32:32.612Z,18.45
2018-01-15T06:34:59.728Z,16.98
2018-01-15T06:37:26.162Z,17.77
2018-01-15T06:39:52.600Z,19.00
2018-01-15T06:42:19.980Z,18.98
2018-01-15T06:44:46.417Z,19.58
2018-01-15T06:47:12.831Z,14.80
2018-01-15T06:49:39.248Z,17.87
2018-01-15T06:52:05.714Z,18.50
2018-01-15T06:54:32.191Z,17.37
2018-01-15T06:56:59.615Z,19.52
2018-01-15T06:59:25.987Z,16.42
2018-01-15T07:01:52.346Z,15.25
2018-01-15T07:04:18.670Z,16.00
2018-01-15T07:06:45.015Z,13.82
2018-01-15T07:09:11.314Z,15.10
2018-01-15T07:11:37.677Z,16.12
2018-01-15T07:14:04.008Z,16.30
2018-01-15T07:16:30.328Z,14.55
2018-01-15T07:18:56.642Z,14.52
2018-01-15T07:21:22.999Z,17.60
2018-01-15T07:23:49.290Z,14.18
2018-01-15T07:26:16.393Z,14.75
2018-01-15T07:28:42.716Z,14.90
2018-01-15T07:31:09.045Z,13.70
2018-01-15T07:33:35.347Z,14.48
2018-01-15T07:36:01.698Z,16.77
2018-01-15T07:38:28.010Z,13.67
2018-01-15T07:40:54.364Z,13.55
2018-01-15T07:43:20.675Z,14.37
2018-01-15T07:45:47.025Z,15.13
2018-01-15T07:48:13.338Z,13.20
2018-01-15T07:50:39.710Z,16.48
2018-01-15T07:53:05.987Z,14.00
2018-01-15T07:55:32.351Z,16.12
2018-01-15T07:57:58.760Z,12.17
2018-01-15T08:00:25.103Z,13.80
2018-01-15T08:02:51.523Z,15.70
2018-01-15T08:05:17.879Z,16.55
2018-01-15T08:07:44.182Z,15.97
2018-01-15T08:10:10.539Z,16.53
2018-01-15T08:12:36.827Z,14.13
2018-01-15T08:15:03.192Z,14.25
2018-01-15T08:17:29.508Z,16.83
2018-01-15T08:19:55.850Z,15.00
2018-01-15T08:22:22.155Z,17.30
2018-01-15T08:24:48.707Z,14.80
2018-01-15T08:27:15.038Z,15.77
2018-01-15T08:29:41.425Z,16.10
2018-01-15T08:32:08.504Z,14.60
2018-01-15T08:34:34.863Z,15.03
2018-01-15T08:37:01.158Z,14.23
2018-01-15T08:39:28.242Z,18.63
2018-01-15T08:41:54.559Z,15.70
2018-01-15T08:44:20.910Z,16.83
2018-01-15T08:46:47.207Z,15.90
2018-01-15T08:49:13.576Z,17.50
2018-01-15T08:51:39.874Z,19.20
2018-01-15T08:54:06.214Z,17.33
2018-01-15T08:56:32.528Z,17.03
2018-01-15T08:58:58.885Z,15.07
2018-01-15T09:01:25.186Z,15.20
2018-01-15T09:03:51.616Z,14.43
2018-01-15T09:06:18.680Z,13.23
2018-01-15T09:08:45.037Z,18.45
2018-01-15T09:11:11.343Z,16.57
2018-01-15T09:13:37.678Z,14.57
2018-01-15T09:16:03.997Z,20.87
2018-01-15T09:18:30.336Z,15.50
2018-01-15T09:20:56.660Z,18.23
2018-01-15T09:23:23.024Z,15.37
2018-01-15T09:25:49.298Z,16.60
2018-01-15T09:28:16.367Z,16.50
2018-01-15T09:30:42.719Z,14.80
2018-01-15T09:33:09.029Z,15.33
2018-01-15T09:35:35.367Z,19.50
2018-01-15T09:38:01.680Z,22.43
2018-01-15T09:40:28.768Z,18.17
2018-01-15T09:42:55.131Z,16.77
2018-01-15T09:45:21.498Z,16.43
2018-01-15T09:47:47.903Z,16.40
2018-01-15T09:50:15.000Z,16.97
2018-01-15T09:52:42.347Z,19.77
2018-01-15T09:55:08.782Z,16.67
2018-01-15T09:57:35.132Z,16.33
2018-01-15T10:00:01.422Z,16.70
2018-01-15T10:02:27.802Z,15.30
2018-01-15T10:04:54.080Z,14.60
2018-01-15T10:07:20.437Z,15.43
2018-01-15T10:09:46.805Z,14.90
2018-01-15T10:12:13.219Z,16.23
2018-01-15T10:14:39.500Z,17.50
2018-01-15T10:17:06.569Z,15.77
2018-01-15T10:19:32.890Z,16.40
2018-01-15T10:21:59.256Z,20.97
2018-01-15T10:24:25.564Z,18.53
2018-01-15T10:26:51.905Z,15.00
2018-01-15T10:29:18.184Z,14.70
2018-01-15T10:31:45.202Z,15.43
2018-01-15T10:34:11.571Z,18.03
2018-01-15T10:36:38.600Z,15.10
2018-01-15T10:39:04.870Z,16.13
2018-01-15T10:41:31.155Z,19.50
2018-01-15T10:43:57.430Z,20.90
2018-01-15T10:46:23.707Z,19.33
2018-01-15T10:48:49.982Z,21.50
2018-01-15T10:51:16.312Z,19.90
2018-01-15T10:53:42.649Z,16.60
2018-01-15T10:56:08.920Z,28.60
2018-01-15T10:58:36.057Z,17.90
2018-01-15T11:01:08.399Z,22.50
2018-01-15T11:03:34.752Z,19.23
2018-01-15T11:06:01.044Z,16.00
2018-01-15T11:08:28.092Z,18.73
2018-01-15T11:10:55.131Z,21.53
2018-01-15T11:13:22.153Z,17.63
2018-01-15T11:15:48.547Z,23.10
2018-01-15T11:18:14.865Z,24.87
2018-01-15T11:20:41.222Z,20.60
2018-01-15T11:23:07.637Z,25.00
2018-01-15T11:25:34.062Z,19.90
2018-01-15T11:28:00.932Z,18.87
2018-01-15T11:30:29.291Z,18.53
2018-01-15T11:32:55.615Z,17.37
2018-01-15T11:35:21.952Z,15.87
2018-01-15T11:37:48.258Z,19.00
2018-01-15T11:40:16.642Z,18.30
2018-01-15T11:42:42.916Z,19.23
2018-01-15T11:45:09.944Z,17.10
2018-01-15T11:47:36.190Z,21.33
2018-01-15T11:50:02.823Z,24.47
2018-01-15T11:52:29.091Z,18.20
2018-01-15T11:54:55.387Z,17.20
2018-01-15T11:57:21.748Z,20.77
2018-01-15T11:59:48.031Z,16.97
2018-01-15T12:02:14.304Z,19.53
2018-01-15T12:04:40.608Z,18.40
2018-01-15T12:07:06.884Z,22.43
2018-01-15T12:09:33.960Z,21.27
2018-01-15T12:12:00.226Z,19.53
2018-01-15T12:14:26.526Z,16.13
2018-01-15T12:16:52.772Z,18.50
2018-01-15T12:19:19.078Z,19.30
2018-01-15T12:21:45.403Z,20.87
2018-01-15T12:24:11.666Z,21.17
2018-01-15T12:26:37.963Z,20.03
2018-01-15T12:29:04.240Z,19.57
2018-01-15T12:31:30.521Z,17.33
2018-01-15T12:33:56.800Z,16.60
2018-01-15T12:36:23.125Z,13.63
2018-01-15T12:38:50.232Z,15.50
2018-01-15T12:41:16.540Z,19.63
2018-01-15T12:43:43.553Z,16.73
2018-01-15T12:46:09.856Z,19.30
2018-01-15T12:48:36.120Z,20.73
2018-01-15T12:51:02.410Z,16.43
2018-01-15T12:53:28.733Z,19.03
2018-01-15T12:55:55.066Z,20.00
2018-01-15T12:58:21.382Z,19.20
2018-01-15T13:00:47.684Z,18.37
2018-01-15T13:03:14.746Z,16.93
2018-01-15T13:05:48.570Z,18.93
2018-01-15T13:08:27.060Z,18.70
2018-01-15T13:10:54.087Z,16.97
2018-01-15T13:13:20.346Z,17.73
2018-01-15T13:15:46.679Z,16.77
2018-01-15T13:18:12.962Z,19.03
2018-01-15T13:20:39.244Z,20.67
2018-01-15T13:23:05.563Z,15.37
2018-01-15T13:25:32.596Z,20.90
2018-01-15T13:28:04.345Z,19.00
2018-01-15T13:30:30.638Z,22.03
2018-01-15T13:32:56.903Z,21.27
2018-01-15T13:35:23.960Z,20.07
2018-01-15T13:37:50.976Z,21.53
2018-01-15T13:40:18.246Z,18.33
2018-01-15T13:42:44.513Z,17.70
2018-01-15T13:45:10.824Z,19.77
2018-01-15T13:47:37.839Z,18.57
2018-01-15T13:50:04.137Z,15.63
2018-01-15T13:52:30.424Z,20.30
2018-01-15T13:54:56.732Z,17.87
2018-01-15T13:57:22.999Z,20.27
2018-01-15T13:59:50.027Z,19.17
2018-01-15T14:02:16.287Z,17.40
2018-01-15T14:07:34.616Z,18.33
2018-01-15T14:10:00.916Z,19.73
2018-01-15T14:12:27.195Z,21.33
2018-01-15T14:14:54.221Z,21.00
2018-01-15T14:17:20.512Z,19.63
2018-01-15T14:19:46.831Z,18.73
2018-01-15T14:22:13.161Z,19.10
2018-01-15T14:24:39.420Z,16.70
2018-01-15T14:27:05.732Z,20.23
2018-01-15T14:29:31.992Z,21.73
2018-01-15T14:31:58.274Z,19.53
2018-01-15T14:34:24.542Z,24.17
2018-01-15T14:36:50.831Z,21.63
2018-01-15T14:39:17.086Z,21.07
2018-01-15T14:41:43.366Z,20.10
2018-01-15T14:44:10.372Z,21.50
2018-01-15T14:46:36.681Z,23.73
2018-01-15T14:49:02.978Z,20.80
2018-01-15T14:51:29.294Z,20.90
2018-01-15T14:53:56.314Z,14.70
2018-01-15T14:56:22.591Z,19.43
2018-01-15T14:58:48.917Z,19.33
2018-01-15T15:01:15.197Z,20.30
2018-01-15T15:03:41.536Z,18.40
2018-01-15T15:06:07.775Z,19.13
2018-01-15T15:08:34.047Z,18.57
2018-01-15T15:11:00.322Z,19.93
2018-01-15T15:15:52.808Z,20.37
2018-01-15T15:18:19.834Z,19.27
2018-01-15T15:20:46.098Z,20.80
2018-01-15T15:23:12.367Z,20.10
2018-01-15T15:25:38.636Z,19.13
2018-01-15T15:28:05.698Z,21.90
2018-01-15T15:30:32.718Z,23.90
2018-01-15T15:32:59.033Z,19.13
2018-01-15T15:35:25.286Z,20.07
2018-01-15T15:37:51.596Z,20.10
2018-01-15T15:40:17.863Z,20.17
2018-01-15T15:42:44.937Z,24.97
2018-01-15T15:45:11.212Z,23.80
2018-01-15T15:47:37.609Z,18.60
2018-01-15T15:50:03.879Z,21.33
2018-01-15T15:52:30.158Z,20.03
2018-01-15T15:54:56.410Z,19.00
2018-01-15T15:57:23.779Z,20.90
2018-01-15T15:59:50.063Z,20.30
2018-01-15T16:02:16.368Z,22.50
2018-01-15T16:04:43.374Z,21.63
2018-01-15T16:07:09.684Z,17.40
2018-01-15T16:09:35.952Z,23.17
2018-01-15T16:12:02.244Z,18.10
2018-01-15T16:14:28.563Z,18.13
2018-01-15T16:16:54.836Z,15.50
2018-01-15T16:19:21.120Z,18.87
2018-01-15T16:21:59.813Z,19.43
2018-01-15T16:24:26.868Z,19.73
2018-01-15T16:26:53.896Z,16.50
2018-01-15T16:29:20.182Z,20.03
2018-01-15T16:31:46.515Z,18.63
2018-01-15T16:34:12.818Z,18.70
2018-01-15T16:36:39.118Z,16.43
2018-01-15T16:39:06.172Z,16.93
2018-01-15T16:41:48.130Z,16.80
2018-01-15T16:44:14.395Z,16.80
2018-01-15T16:46:41.436Z,16.00
2018-01-15T16:49:08.457Z,17.87
2018-01-15T16:51:35.489Z,17.50
2018-01-15T16:54:01.862Z,18.73
2018-01-15T16:56:28.618Z,17.30
2018-01-15T16:58:55.682Z,16.23
2018-01-15T17:01:21.968Z,17.90
2018-01-15T17:03:48.253Z,18.97
2018-01-15T17:06:14.545Z,17.23
2018-01-15T17:08:41.654Z,15.03
2018-01-15T17:11:07.972Z,23.47
2018-01-15T17:13:34.267Z,17.03
2018-01-15T17:16:01.275Z,17.67
2018-01-15T17:18:27.561Z,17.93
2018-01-15T17:20:53.884Z,20.07
2018-01-15T17:23:20.932Z,18.10
2018-01-15T17:25:47.263Z,21.13
2018-01-15T17:28:13.618Z,20.73
2018-01-15T17:30:39.899Z,14.67
2018-01-15T17:33:06.952Z,16.47
2018-01-15T17:35:33.976Z,20.80
2018-01-15T17:38:00.245Z,15.30
2018-01-15T17:40:26.506Z,16.60
2018-01-15T17:42:53.544Z,14.30
2018-01-15T17:45:19.818Z,17.17
2018-01-15T17:47:46.112Z,16.17
2018-01-15T17:50:12.449Z,17.63
2018-01-15T17:52:38.739Z,16.47
2018-01-15T17:55:04.997Z,13.87
2018-01-15T17:57:31.323Z,16.37
2018-01-15T17:59:57.640Z,14.90
2018-01-15T18:02:23.990Z,11.80
2018-01-15T18:04:50.270Z,14.87
2018-01-15T18:07:17.294Z,15.40
2018-01-15T18:09:44.424Z,16.13
2018-01-15T18:12:10.709Z,14.50
2018-01-15T18:14:37.722Z,12.40
2018-01-15T18:17:04.064Z,16.73
2018-01-15T18:19:31.082Z,14.10
2018-01-15T18:21:57.409Z,15.80
2018-01-15T18:24:23.736Z,16.50
2018-01-15T18:26:50.034Z,18.60
2018-01-15T18:29:16.312Z,12.40
2018-01-15T18:31:42.620Z,16.37
2018-01-15T18:34:08.905Z,18.20
2018-01-15T18:36:35.942Z,18.57
2018-01-15T18:39:03.011Z,15.43
2018-01-15T18:41:29.287Z,16.30
2018-01-15T18:43:55.572Z,15.80
2018-01-15T18:46:21.850Z,15.30
2018-01-15T18:48:48.133Z,15.10
2018-01-15T18:51:14.427Z,14.93
2018-01-15T18:53:40.704Z,17.50
2018-01-15T18:56:07.019Z,15.80
2018-01-15T18:58:33.322Z,17.27
2018-01-15T19:00:59.745Z,17.87
2018-01-15T19:03:26.010Z,11.70
2018-01-15T19:05:52.307Z,14.10
2018-01-15T19:08:18.577Z,15.83
2018-01-15T19:10:44.856Z,16.37
2018-01-15T19:13:11.164Z,17.10
2018-01-15T19:15:37.436Z,16.67
2018-01-15T19:18:04.054Z,14.23
2018-01-15T19:20:30.318Z,14.43
2018-01-15T19:22:57.348Z,17.87
2018-01-15T19:25:24.418Z,13.77
2018-01-15T19:27:50.754Z,13.93
2018-01-15T19:30:17.083Z,12.93
2018-01-15T19:32:43.382Z,12.03
2018-01-15T19:35:28.428Z,13.60
2018-01-15T19:37:54.719Z,12.10
2018-01-15T19:40:21.040Z,15.07
2018-01-15T19:42:47.623Z,16.37
2018-01-15T19:45:30.921Z,13.03
2018-01-15T19:48:03.337Z,15.33
2018-01-15T19:50:35.667Z,12.90
2018-01-15T19:53:08.269Z,15.33
2018-01-15T19:55:40.624Z,13.10
2018-01-15T19:58:12.902Z,14.20
2018-01-15T20:00:45.194Z,11.80
2018-01-15T20:03:17.615Z,12.07
2018-01-15T20:06:01.684Z,14.93
2018-01-15T20:08:34.807Z,17.90
2018-01-15T20:11:02.251Z,16.63
2018-01-15T20:13:29.319Z,16.53
2018-01-15T20:15:55.695Z,14.23
2018-01-15T20:18:21.972Z,16.60
2018-01-15T20:20:48.249Z,16.33
2018-01-15T20:23:14.544Z,20.43
2018-01-15T20:25:40.820Z,16.40
2018-01-15T20:28:07.091Z,16.03
2018-01-15T20:30:33.382Z,20.93
2018-01-15T20:33:00.017Z,17.30
2018-01-15T20:35:26.268Z,17.40
2018-01-15T20:37:52.555Z,14.90
2018-01-15T20:40:18.842Z,19.03
2018-01-15T20:42:45.162Z,16.27
2018-01-15T20:45:11.442Z,17.53
2018-01-15T20:47:38.485Z,17.27
2018-01-15T20:50:05.524Z,12.87
2018-01-15T20:52:32.559Z,13.17
2018-01-15T20:54:58.814Z,15.60
2018-01-15T20:57:25.940Z,13.93
2018-01-15T20:59:52.229Z,14.77
2018-01-15T21:02:18.518Z,19.17
2018-01-15T21:04:45.535Z,14.57
2018-01-15T21:07:11.814Z,17.43
2018-01-15T21:09:38.083Z,14.90
2018-01-15T21:12:04.367Z,14.00
2018-01-15T21:14:30.708Z,15.20
2018-01-15T21:16:56.996Z,18.33
2018-01-15T21:19:23.294Z,16.33
2018-01-15T21:21:49.615Z,15.47
2018-01-15T21:24:15.886Z,15.37
2018-01-15T21:26:42.158Z,16.23
2018-01-15T21:29:08.442Z,18.00
2018-01-15T21:31:34.719Z,17.17
2018-01-15T21:34:01.002Z,14.27
2018-01-15T21:36:28.036Z,18.47
2018-01-15T21:38:54.326Z,16.33
2018-01-15T21:41:20.629Z,14.60
2018-01-15T21:43:47.731Z,11.87
2018-01-15T21:46:14.024Z,14.20
2018-01-15T21:48:40.321Z,13.60
2018-01-15T21:51:06.582Z,12.97
2018-01-15T21:53:32.884Z,16.17
2018-01-15T21:55:59.891Z,13.20
2018-01-15T21:58:26.230Z,14.23
2018-01-15T22:00:52.520Z,12.60
2018-01-15T22:03:18.790Z,12.57
2018-01-15T22:05:45.807Z,10.23
2018-01-15T22:08:12.151Z,14.37
2018-01-15T22:10:38.426Z,11.50
2018-01-15T22:13:05.468Z,16.97
2018-01-15T22:15:31.738Z,11.23
2018-01-15T22:17:58.024Z,11.93
2018-01-15T22:20:24.271Z,10.23
2018-01-15T22:22:51.442Z,9.20
2018-01-15T22:25:17.711Z,13.23
2018-01-15T22:27:43.998Z,12.63
2018-01-15T22:30:10.282Z,11.27
2018-01-15T22:32:36.574Z,10.40
2018-01-15T22:35:02.905Z,10.87
2018-01-15T22:37:29.284Z,10.00
2018-01-15T22:39:55.578Z,8.23
2018-01-15T22:42:21.939Z,8.37
2018-01-15T22:44:48.300Z,7.60
2018-01-15T22:47:14.646Z,12.30
2018-01-15T22:49:40.931Z,7.70
2018-01-15T22:52:07.238Z,9.70
2018-01-15T22:54:33.554Z,7.90
2018-01-15T22:56:59.916Z,8.90
2018-01-15T22:59:26.230Z,6.43
2018-01-15T23:01:52.624Z,6.27
2018-01-15T23:04:18.938Z,8.00
2018-01-15T23:06:46.153Z,7.50
2018-01-15T23:09:12.540Z,6.20
2018-01-15T23:11:39.061Z,7.90
2018-01-15T23:14:06.236Z,8.43
2018-01-15T23:16:32.704Z,4.77
2018-01-15T23:18:59.114Z,3.60
2018-01-15T23:21:25.473Z,4.40
2018-01-15T23:23:52.632Z,3.90
2018-01-15T23:26:18.915Z,4.30
2018-01-15T23:28:45.252Z,3.83
2018-01-15T23:31:11.746Z,3.50
2018-01-15T23:33:38.780Z,8.60
2018-01-15T23:36:05.388Z,3.50
2018-01-15T23:38:31.771Z,6.20
2018-01-15T23:40:58.864Z,4.03
2018-01-15T23:43:25.151Z,3.83
2018-01-15T23:45:52.348Z,5.33
2018-01-15T23:48:18.997Z,4.53
2018-01-15T23:50:45.411Z,3.97
2018-01-15T23:53:11.862Z,5.00
2018-01-15T23:55:38.244Z,7.03
2018-01-15T23:58:04.745Z,3.83
